sensor_id;sensor_type;location;lat;lon;timestamp;P1;durP1;ratioP1;P2;durP2;ratioP2
6392;SDS011;3229;42.674;23.282;2022-12-18T00:00:13;4.20;;;3.90;;
6392;SDS011;3229;42.674;23.282;2022-12-18T00:02:40;4.47;;;3.97;;
6392;SDS011;3229;42.674;23.282;2022-12-18T00:05:07;3.83;;;3.53;;
6392;SDS011;3229;42.674;23.282;2022-12-18T00:07:35;4.40;;;4.00;;
6392;SDS011;3229;42.674;23.282;2022-12-18T00:10:02;4.17;;;3.80;;
6392;SDS011;3229;42.674;23.282;2022-12-18T00:12:29;4.30;;;3.93;;
6392;SDS011;3229;42.674;23.282;2022-12-18T00:14:56;4.50;;;4.10;;
6392;SDS011;3229;42.674;23.282;2022-12-18T00:17:24;4.57;;;4.17;;
6392;SDS011;3229;42.674;23.282;2022-12-18T00:19:51;4.70;;;4.30;;
6392;SDS011;3229;42.674;23.282;2022-12-18T00:22:18;4.23;;;3.87;;
6392;SDS011;3229;42.674;23.282;2022-12-18T00:24:45;4.20;;;3.80;;
6392;SDS011;3229;42.674;23.282;2022-12-18T00:27:12;4.43;;;4.00;;
6392;SDS011;3229;42.674;23.282;2022-12-18T00:29:38;4.43;;;4.03;;
6392;SDS011;3229;42.674;23.282;2022-12-18T00:32:05;4.73;;;4.17;;
6392;SDS011;3229;42.674;23.282;2022-12-18T00:34:33;4.50;;;4.00;;
6392;SDS011;3229;42.674;23.282;2022-12-18T00:37:00;4.67;;;4.27;;
6392;SDS011;3229;42.674;23.282;2022-12-18T00:39:27;4.50;;;4.10;;
6392;SDS011;3229;42.674;23.282;2022-12-18T00:41:54;4.83;;;4.03;;
6392;SDS011;3229;42.674;23.282;2022-12-18T00:44:38;4.57;;;4.17;;
6392;SDS011;3229;42.674;23.282;2022-12-18T00:47:05;6.03;;;4.20;;
6392;SDS011;3229;42.674;23.282;2022-12-18T00:49:32;4.53;;;4.13;;
6392;SDS011;3229;42.674;23.282;2022-12-18T00:52:00;4.43;;;3.90;;
6392;SDS011;3229;42.674;23.282;2022-12-18T00:54:27;4.80;;;4.30;;
6392;SDS011;3229;42.674;23.282;2022-12-18T00:56:53;5.03;;;4.53;;
6392;SDS011;3229;42.674;23.282;2022-12-18T00:59:21;5.57;;;4.53;;
6392;SDS011;3229;42.674;23.282;2022-12-18T01:01:48;5.20;;;4.70;;
6392;SDS011;3229;42.674;23.282;2022-12-18T01:04:14;6.00;;;4.60;;
6392;SDS011;3229;42.674;23.282;2022-12-18T01:06:43;4.97;;;4.50;;
6392;SDS011;3229;42.674;23.282;2022-12-18T01:09:09;5.27;;;4.63;;
6392;SDS011;3229;42.674;23.282;2022-12-18T01:11:36;7.80;;;4.47;;
6392;SDS011;3229;42.674;23.282;2022-12-18T01:14:03;5.20;;;4.53;;
6392;SDS011;3229;42.674;23.282;2022-12-18T01:16:30;5.77;;;5.00;;
6392;SDS011;3229;42.674;23.282;2022-12-18T01:18:57;5.87;;;4.70;;
6392;SDS011;3229;42.674;23.282;2022-12-18T01:21:23;5.30;;;4.57;;
6392;SDS011;3229;42.674;23.282;2022-12-18T01:23:53;4.73;;;4.10;;
6392;SDS011;3229;42.674;23.282;2022-12-18T01:26:21;5.07;;;4.57;;
6392;SDS011;3229;42.674;23.282;2022-12-18T01:28:48;5.43;;;4.80;;
6392;SDS011;3229;42.674;23.282;2022-12-18T01:31:16;4.90;;;4.40;;
6392;SDS011;3229;42.674;23.282;2022-12-18T01:33:44;5.20;;;4.70;;
6392;SDS011;3229;42.674;23.282;2022-12-18T01:36:14;4.60;;;4.20;;
6392;SDS011;3229;42.674;23.282;2022-12-18T01:38:42;4.40;;;4.00;;
6392;SDS011;3229;42.674;23.282;2022-12-18T01:41:11;4.93;;;4.43;;
6392;SDS011;3229;42.674;23.282;2022-12-18T01:43:45;4.40;;;4.00;;
6392;SDS011;3229;42.674;23.282;2022-12-18T01:46:13;5.87;;;4.50;;
6392;SDS011;3229;42.674;23.282;2022-12-18T01:48:40;5.40;;;4.63;;
6392;SDS011;3229;42.674;23.282;2022-12-18T01:51:09;5.03;;;4.27;;
6392;SDS011;3229;42.674;23.282;2022-12-18T01:53:37;6.70;;;5.23;;
6392;SDS011;3229;42.674;23.282;2022-12-18T01:56:06;5.67;;;4.37;;
6392;SDS011;3229;42.674;23.282;2022-12-18T01:58:37;7.90;;;5.47;;
6392;SDS011;3229;42.674;23.282;2022-12-18T02:01:09;5.90;;;4.97;;
6392;SDS011;3229;42.674;23.282;2022-12-18T02:03:36;5.73;;;5.17;;
6392;SDS011;3229;42.674;23.282;2022-12-18T02:06:06;5.30;;;4.77;;
6392;SDS011;3229;42.674;23.282;2022-12-18T02:08:37;5.13;;;4.63;;
6392;SDS011;3229;42.674;23.282;2022-12-18T02:11:10;5.97;;;5.03;;
6392;SDS011;3229;42.674;23.282;2022-12-18T02:13:49;5.63;;;4.97;;
6392;SDS011;3229;42.674;23.282;2022-12-18T02:16:24;4.70;;;4.30;;
6392;SDS011;3229;42.674;23.282;2022-12-18T02:19:00;6.23;;;5.13;;
6392;SDS011;3229;42.674;23.282;2022-12-18T02:21:32;5.10;;;4.60;;
6392;SDS011;3229;42.674;23.282;2022-12-18T02:24:12;4.97;;;4.50;;
6392;SDS011;3229;42.674;23.282;2022-12-18T02:26:47;5.17;;;4.77;;
6392;SDS011;3229;42.674;23.282;2022-12-18T02:29:16;5.33;;;4.67;;
6392;SDS011;3229;42.674;23.282;2022-12-18T02:31:48;5.53;;;4.57;;
6392;SDS011;3229;42.674;23.282;2022-12-18T02:34:19;8.23;;;5.57;;
6392;SDS011;3229;42.674;23.282;2022-12-18T02:36:49;5.63;;;4.87;;
6392;SDS011;3229;42.674;23.282;2022-12-18T02:39:17;5.87;;;5.27;;
6392;SDS011;3229;42.674;23.282;2022-12-18T02:41:49;5.37;;;4.77;;
6392;SDS011;3229;42.674;23.282;2022-12-18T02:44:17;7.00;;;4.67;;
6392;SDS011;3229;42.674;23.282;2022-12-18T02:46:44;5.87;;;4.60;;
6392;SDS011;3229;42.674;23.282;2022-12-18T02:49:20;5.17;;;4.67;;
6392;SDS011;3229;42.674;23.282;2022-12-18T02:51:53;7.90;;;5.03;;
6392;SDS011;3229;42.674;23.282;2022-12-18T02:54:27;6.53;;;4.83;;
6392;SDS011;3229;42.674;23.282;2022-12-18T02:57:08;6.90;;;4.90;;
6392;SDS011;3229;42.674;23.282;2022-12-18T02:59:44;5.80;;;4.70;;
6392;SDS011;3229;42.674;23.282;2022-12-18T03:02:19;4.90;;;4.40;;
6392;SDS011;3229;42.674;23.282;2022-12-18T03:04:49;5.03;;;4.47;;
6392;SDS011;3229;42.674;23.282;2022-12-18T03:07:26;6.27;;;4.50;;
6392;SDS011;3229;42.674;23.282;2022-12-18T03:10:01;6.13;;;5.30;;
6392;SDS011;3229;42.674;23.282;2022-12-18T03:12:31;5.60;;;4.57;;
6392;SDS011;3229;42.674;23.282;2022-12-18T03:15:02;5.83;;;4.33;;
6392;SDS011;3229;42.674;23.282;2022-12-18T03:17:34;4.80;;;4.40;;
6392;SDS011;3229;42.674;23.282;2022-12-18T03:20:04;6.63;;;4.87;;
6392;SDS011;3229;42.674;23.282;2022-12-18T03:22:36;5.17;;;4.67;;
6392;SDS011;3229;42.674;23.282;2022-12-18T03:25:05;4.70;;;4.20;;
6392;SDS011;3229;42.674;23.282;2022-12-18T03:27:37;5.70;;;5.10;;
6392;SDS011;3229;42.674;23.282;2022-12-18T03:30:09;4.97;;;4.47;;
6392;SDS011;3229;42.674;23.282;2022-12-18T03:32:40;4.50;;;4.10;;
6392;SDS011;3229;42.674;23.282;2022-12-18T03:35:11;4.93;;;4.43;;
6392;SDS011;3229;42.674;23.282;2022-12-18T03:37:40;6.47;;;4.93;;
6392;SDS011;3229;42.674;23.282;2022-12-18T03:40:07;5.70;;;4.27;;
6392;SDS011;3229;42.674;23.282;2022-12-18T03:42:38;5.03;;;4.53;;
6392;SDS011;3229;42.674;23.282;2022-12-18T03:45:14;5.13;;;4.50;;
6392;SDS011;3229;42.674;23.282;2022-12-18T03:47:51;5.87;;;4.80;;
6392;SDS011;3229;42.674;23.282;2022-12-18T03:50:27;5.40;;;4.40;;
6392;SDS011;3229;42.674;23.282;2022-12-18T03:53:04;5.23;;;4.50;;
6392;SDS011;3229;42.674;23.282;2022-12-18T03:55:38;6.03;;;4.90;;
6392;SDS011;3229;42.674;23.282;2022-12-18T03:58:07;5.43;;;4.60;;
6392;SDS011;3229;42.674;23.282;2022-12-18T04:00:37;5.40;;;4.43;;
6392;SDS011;3229;42.674;23.282;2022-12-18T04:03:05;4.80;;;4.30;;
6392;SDS011;3229;42.674;23.282;2022-12-18T04:05:33;5.20;;;4.73;;
6392;SDS011;3229;42.674;23.282;2022-12-18T04:08:02;4.67;;;4.27;;
6392;SDS011;3229;42.674;23.282;2022-12-18T04:10:29;4.60;;;4.20;;
6392;SDS011;3229;42.674;23.282;2022-12-18T04:12:57;5.00;;;4.13;;
6392;SDS011;3229;42.674;23.282;2022-12-18T04:15:25;4.50;;;4.10;;
6392;SDS011;3229;42.674;23.282;2022-12-18T04:17:52;4.70;;;4.30;;
6392;SDS011;3229;42.674;23.282;2022-12-18T04:20:19;6.53;;;5.47;;
6392;SDS011;3229;42.674;23.282;2022-12-18T04:22:45;5.30;;;4.80;;
6392;SDS011;3229;42.674;23.282;2022-12-18T04:25:12;4.97;;;4.47;;
6392;SDS011;3229;42.674;23.282;2022-12-18T04:27:39;4.97;;;4.33;;
6392;SDS011;3229;42.674;23.282;2022-12-18T04:30:06;6.27;;;4.90;;
6392;SDS011;3229;42.674;23.282;2022-12-18T04:32:35;5.13;;;4.53;;
6392;SDS011;3229;42.674;23.282;2022-12-18T04:35:02;6.10;;;4.53;;
6392;SDS011;3229;42.674;23.282;2022-12-18T04:37:31;5.43;;;4.83;;
6392;SDS011;3229;42.674;23.282;2022-12-18T04:39:58;5.57;;;5.00;;
6392;SDS011;3229;42.674;23.282;2022-12-18T04:42:25;5.80;;;5.20;;
6392;SDS011;3229;42.674;23.282;2022-12-18T04:44:52;5.90;;;4.57;;
6392;SDS011;3229;42.674;23.282;2022-12-18T04:47:19;6.87;;;5.20;;
6392;SDS011;3229;42.674;23.282;2022-12-18T04:49:47;6.83;;;5.23;;
6392;SDS011;3229;42.674;23.282;2022-12-18T04:52:13;7.30;;;4.60;;
6392;SDS011;3229;42.674;23.282;2022-12-18T04:54:40;6.27;;;5.27;;
6392;SDS011;3229;42.674;23.282;2022-12-18T04:57:07;5.20;;;4.70;;
6392;SDS011;3229;42.674;23.282;2022-12-18T04:59:34;8.87;;;5.70;;
6392;SDS011;3229;42.674;23.282;2022-12-18T05:02:01;6.17;;;5.57;;
6392;SDS011;3229;42.674;23.282;2022-12-18T05:04:27;6.33;;;5.63;;
6392;SDS011;3229;42.674;23.282;2022-12-18T05:06:56;6.13;;;5.53;;
6392;SDS011;3229;42.674;23.282;2022-12-18T05:09:22;6.97;;;5.53;;
6392;SDS011;3229;42.674;23.282;2022-12-18T05:11:49;6.83;;;5.00;;
6392;SDS011;3229;42.674;23.282;2022-12-18T05:14:16;5.93;;;5.30;;
6392;SDS011;3229;42.674;23.282;2022-12-18T05:16:43;5.23;;;4.73;;
6392;SDS011;3229;42.674;23.282;2022-12-18T05:19:10;6.23;;;5.63;;
6392;SDS011;3229;42.674;23.282;2022-12-18T05:21:37;7.30;;;5.80;;
6392;SDS011;3229;42.674;23.282;2022-12-18T05:24:05;7.20;;;5.77;;
6392;SDS011;3229;42.674;23.282;2022-12-18T05:26:32;7.33;;;6.10;;
6392;SDS011;3229;42.674;23.282;2022-12-18T05:28:59;7.40;;;6.37;;
6392;SDS011;3229;42.674;23.282;2022-12-18T05:31:26;6.43;;;5.57;;
6392;SDS011;3229;42.674;23.282;2022-12-18T05:33:53;7.80;;;6.40;;
6392;SDS011;3229;42.674;23.282;2022-12-18T05:36:20;7.63;;;6.60;;
6392;SDS011;3229;42.674;23.282;2022-12-18T05:38:47;8.03;;;6.27;;
6392;SDS011;3229;42.674;23.282;2022-12-18T05:41:15;7.27;;;6.10;;
6392;SDS011;3229;42.674;23.282;2022-12-18T05:43:42;8.13;;;6.27;;
6392;SDS011;3229;42.674;23.282;2022-12-18T05:46:11;7.63;;;6.40;;
6392;SDS011;3229;42.674;23.282;2022-12-18T05:48:39;7.83;;;6.80;;
6392;SDS011;3229;42.674;23.282;2022-12-18T05:51:06;9.43;;;7.17;;
6392;SDS011;3229;42.674;23.282;2022-12-18T05:53:35;8.60;;;6.03;;
6392;SDS011;3229;42.674;23.282;2022-12-18T05:56:03;8.57;;;6.90;;
6392;SDS011;3229;42.674;23.282;2022-12-18T05:58:32;6.57;;;5.83;;
6392;SDS011;3229;42.674;23.282;2022-12-18T06:01:05;8.03;;;6.90;;
6392;SDS011;3229;42.674;23.282;2022-12-18T06:03:35;8.80;;;6.87;;
6392;SDS011;3229;42.674;23.282;2022-12-18T06:06:02;10.13;;;7.27;;
6392;SDS011;3229;42.674;23.282;2022-12-18T06:08:29;8.23;;;7.13;;
6392;SDS011;3229;42.674;23.282;2022-12-18T06:10:56;9.30;;;7.13;;
6392;SDS011;3229;42.674;23.282;2022-12-18T06:13:23;9.63;;;7.07;;
6392;SDS011;3229;42.674;23.282;2022-12-18T06:15:51;9.83;;;7.13;;
6392;SDS011;3229;42.674;23.282;2022-12-18T06:18:18;8.03;;;6.63;;
6392;SDS011;3229;42.674;23.282;2022-12-18T06:20:44;9.00;;;7.17;;
6392;SDS011;3229;42.674;23.282;2022-12-18T06:23:11;9.27;;;7.30;;
6392;SDS011;3229;42.674;23.282;2022-12-18T06:25:38;8.40;;;6.90;;
6392;SDS011;3229;42.674;23.282;2022-12-18T06:28:05;9.27;;;7.43;;
6392;SDS011;3229;42.674;23.282;2022-12-18T06:30:32;11.80;;;7.57;;
6392;SDS011;3229;42.674;23.282;2022-12-18T06:33:00;10.47;;;8.10;;
6392;SDS011;3229;42.674;23.282;2022-12-18T06:35:27;9.73;;;7.40;;
6392;SDS011;3229;42.674;23.282;2022-12-18T06:37:54;9.27;;;7.87;;
6392;SDS011;3229;42.674;23.282;2022-12-18T06:40:21;11.67;;;8.53;;
6392;SDS011;3229;42.674;23.282;2022-12-18T06:42:47;8.57;;;6.90;;
6392;SDS011;3229;42.674;23.282;2022-12-18T06:45:14;9.83;;;7.83;;
6392;SDS011;3229;42.674;23.282;2022-12-18T06:47:41;10.13;;;7.57;;
6392;SDS011;3229;42.674;23.282;2022-12-18T06:50:09;10.13;;;7.90;;
6392;SDS011;3229;42.674;23.282;2022-12-18T06:52:36;10.20;;;7.77;;
6392;SDS011;3229;42.674;23.282;2022-12-18T06:55:04;9.30;;;7.40;;
6392;SDS011;3229;42.674;23.282;2022-12-18T06:57:35;10.80;;;8.33;;
6392;SDS011;3229;42.674;23.282;2022-12-18T07:00:02;9.80;;;7.43;;
6392;SDS011;3229;42.674;23.282;2022-12-18T07:02:30;11.50;;;8.10;;
6392;SDS011;3229;42.674;23.282;2022-12-18T07:04:57;10.33;;;7.63;;
6392;SDS011;3229;42.674;23.282;2022-12-18T07:07:26;9.27;;;7.53;;
6392;SDS011;3229;42.674;23.282;2022-12-18T07:09:53;15.80;;;6.03;;
6392;SDS011;3229;42.674;23.282;2022-12-18T07:12:19;12.53;;;6.67;;
6392;SDS011;3229;42.674;23.282;2022-12-18T07:14:46;17.00;;;8.03;;
6392;SDS011;3229;42.674;23.282;2022-12-18T07:17:13;9.37;;;6.87;;
6392;SDS011;3229;42.674;23.282;2022-12-18T07:19:40;13.07;;;6.47;;
6392;SDS011;3229;42.674;23.282;2022-12-18T07:22:06;8.17;;;6.57;;
6392;SDS011;3229;42.674;23.282;2022-12-18T07:24:35;7.97;;;6.43;;
6392;SDS011;3229;42.674;23.282;2022-12-18T07:27:02;6.90;;;6.20;;
6392;SDS011;3229;42.674;23.282;2022-12-18T07:29:29;9.07;;;7.23;;
6392;SDS011;3229;42.674;23.282;2022-12-18T07:31:56;9.47;;;6.50;;
6392;SDS011;3229;42.674;23.282;2022-12-18T07:34:23;9.07;;;7.50;;
6392;SDS011;3229;42.674;23.282;2022-12-18T07:36:50;9.77;;;6.80;;
6392;SDS011;3229;42.674;23.282;2022-12-18T07:39:16;9.17;;;7.73;;
6392;SDS011;3229;42.674;23.282;2022-12-18T07:41:45;9.33;;;7.00;;
6392;SDS011;3229;42.674;23.282;2022-12-18T07:44:31;8.90;;;7.33;;
6392;SDS011;3229;42.674;23.282;2022-12-18T07:46:58;12.87;;;7.87;;
6392;SDS011;3229;42.674;23.282;2022-12-18T07:49:25;8.60;;;7.57;;
6392;SDS011;3229;42.674;23.282;2022-12-18T07:51:53;9.07;;;6.93;;
6392;SDS011;3229;42.674;23.282;2022-12-18T07:54:21;11.63;;;7.77;;
6392;SDS011;3229;42.674;23.282;2022-12-18T07:56:49;10.33;;;7.93;;
6392;SDS011;3229;42.674;23.282;2022-12-18T07:59:17;11.13;;;8.47;;
6392;SDS011;3229;42.674;23.282;2022-12-18T08:01:44;12.13;;;9.20;;
6392;SDS011;3229;42.674;23.282;2022-12-18T08:04:10;12.00;;;8.20;;
6392;SDS011;3229;42.674;23.282;2022-12-18T08:06:37;9.43;;;8.33;;
6392;SDS011;3229;42.674;23.282;2022-12-18T08:09:04;11.67;;;9.13;;
6392;SDS011;3229;42.674;23.282;2022-12-18T08:11:31;11.33;;;9.27;;
6392;SDS011;3229;42.674;23.282;2022-12-18T08:14:00;11.40;;;9.07;;
6392;SDS011;3229;42.674;23.282;2022-12-18T08:16:26;13.63;;;9.27;;
6392;SDS011;3229;42.674;23.282;2022-12-18T08:18:53;9.93;;;8.73;;
6392;SDS011;3229;42.674;23.282;2022-12-18T08:21:21;11.60;;;8.73;;
6392;SDS011;3229;42.674;23.282;2022-12-18T08:23:49;13.37;;;10.27;;
6392;SDS011;3229;42.674;23.282;2022-12-18T08:26:16;12.30;;;9.47;;
6392;SDS011;3229;42.674;23.282;2022-12-18T08:28:44;12.37;;;9.67;;
6392;SDS011;3229;42.674;23.282;2022-12-18T08:31:12;12.37;;;10.07;;
6392;SDS011;3229;42.674;23.282;2022-12-18T08:33:39;13.27;;;10.60;;
6392;SDS011;3229;42.674;23.282;2022-12-18T08:36:07;14.13;;;10.67;;
6392;SDS011;3229;42.674;23.282;2022-12-18T08:38:35;12.80;;;9.50;;
6392;SDS011;3229;42.674;23.282;2022-12-18T08:41:03;12.73;;;9.60;;
6392;SDS011;3229;42.674;23.282;2022-12-18T08:43:31;13.40;;;10.67;;
6392;SDS011;3229;42.674;23.282;2022-12-18T08:46:17;12.70;;;9.77;;
6392;SDS011;3229;42.674;23.282;2022-12-18T08:48:44;12.50;;;9.77;;
6392;SDS011;3229;42.674;23.282;2022-12-18T08:51:11;13.47;;;10.00;;
6392;SDS011;3229;42.674;23.282;2022-12-18T08:53:38;13.30;;;10.23;;
6392;SDS011;3229;42.674;23.282;2022-12-18T08:56:05;14.47;;;10.70;;
6392;SDS011;3229;42.674;23.282;2022-12-18T08:58:32;14.93;;;10.40;;
6392;SDS011;3229;42.674;23.282;2022-12-18T09:00:59;16.00;;;11.17;;
6392;SDS011;3229;42.674;23.282;2022-12-18T09:03:29;13.90;;;10.17;;
6392;SDS011;3229;42.674;23.282;2022-12-18T09:05:55;13.70;;;10.60;;
6392;SDS011;3229;42.674;23.282;2022-12-18T09:08:22;13.90;;;10.43;;
6392;SDS011;3229;42.674;23.282;2022-12-18T09:10:51;14.50;;;11.47;;
6392;SDS011;3229;42.674;23.282;2022-12-18T09:13:18;15.40;;;10.43;;
6392;SDS011;3229;42.674;23.282;2022-12-18T09:15:46;13.80;;;11.50;;
6392;SDS011;3229;42.674;23.282;2022-12-18T09:18:15;15.63;;;11.47;;
6392;SDS011;3229;42.674;23.282;2022-12-18T09:20:44;14.33;;;10.33;;
6392;SDS011;3229;42.674;23.282;2022-12-18T09:23:11;14.03;;;11.03;;
6392;SDS011;3229;42.674;23.282;2022-12-18T09:25:39;15.17;;;11.57;;
6392;SDS011;3229;42.674;23.282;2022-12-18T09:28:09;14.90;;;11.20;;
6392;SDS011;3229;42.674;23.282;2022-12-18T09:30:38;14.50;;;11.43;;
6392;SDS011;3229;42.674;23.282;2022-12-18T09:33:05;13.93;;;11.07;;
6392;SDS011;3229;42.674;23.282;2022-12-18T09:35:32;15.03;;;11.07;;
6392;SDS011;3229;42.674;23.282;2022-12-18T09:38:03;12.87;;;10.33;;
6392;SDS011;3229;42.674;23.282;2022-12-18T09:40:32;15.93;;;11.47;;
6392;SDS011;3229;42.674;23.282;2022-12-18T09:43:02;15.03;;;11.20;;
6392;SDS011;3229;42.674;23.282;2022-12-18T09:45:30;13.57;;;10.43;;
6392;SDS011;3229;42.674;23.282;2022-12-18T09:48:05;14.83;;;10.83;;
6392;SDS011;3229;42.674;23.282;2022-12-18T09:50:37;14.17;;;10.67;;
6392;SDS011;3229;42.674;23.282;2022-12-18T09:53:12;16.37;;;10.73;;
6392;SDS011;3229;42.674;23.282;2022-12-18T09:55:42;13.47;;;10.33;;
6392;SDS011;3229;42.674;23.282;2022-12-18T09:58:13;15.43;;;10.83;;
6392;SDS011;3229;42.674;23.282;2022-12-18T10:00:43;16.43;;;11.10;;
6392;SDS011;3229;42.674;23.282;2022-12-18T10:03:11;16.83;;;11.77;;
6392;SDS011;3229;42.674;23.282;2022-12-18T10:05:40;14.47;;;11.03;;
6392;SDS011;3229;42.674;23.282;2022-12-18T10:08:16;15.27;;;11.07;;
6392;SDS011;3229;42.674;23.282;2022-12-18T10:10:48;14.77;;;11.30;;
6392;SDS011;3229;42.674;23.282;2022-12-18T10:13:21;12.77;;;9.53;;
6392;SDS011;3229;42.674;23.282;2022-12-18T10:15:56;17.13;;;10.33;;
6392;SDS011;3229;42.674;23.282;2022-12-18T10:18:38;12.90;;;8.83;;
6392;SDS011;3229;42.674;23.282;2022-12-18T10:21:26;14.07;;;10.13;;
6392;SDS011;3229;42.674;23.282;2022-12-18T10:24:01;12.60;;;10.43;;
6392;SDS011;3229;42.674;23.282;2022-12-18T10:26:42;13.57;;;9.90;;
6392;SDS011;3229;42.674;23.282;2022-12-18T10:29:10;13.83;;;10.60;;
6392;SDS011;3229;42.674;23.282;2022-12-18T10:31:39;11.70;;;9.37;;
6392;SDS011;3229;42.674;23.282;2022-12-18T10:34:08;13.63;;;10.13;;
6392;SDS011;3229;42.674;23.282;2022-12-18T10:36:35;13.13;;;9.57;;
6392;SDS011;3229;42.674;23.282;2022-12-18T10:39:19;11.73;;;9.37;;
6392;SDS011;3229;42.674;23.282;2022-12-18T10:41:48;13.27;;;9.90;;
6392;SDS011;3229;42.674;23.282;2022-12-18T10:44:18;12.77;;;10.37;;
6392;SDS011;3229;42.674;23.282;2022-12-18T10:46:46;12.67;;;10.43;;
6392;SDS011;3229;42.674;23.282;2022-12-18T10:49:19;12.57;;;9.87;;
6392;SDS011;3229;42.674;23.282;2022-12-18T10:51:49;15.43;;;11.33;;
6392;SDS011;3229;42.674;23.282;2022-12-18T10:54:19;13.83;;;10.33;;
6392;SDS011;3229;42.674;23.282;2022-12-18T10:56:48;12.57;;;10.30;;
6392;SDS011;3229;42.674;23.282;2022-12-18T10:59:16;12.50;;;9.50;;
6392;SDS011;3229;42.674;23.282;2022-12-18T11:01:48;11.60;;;8.67;;
6392;SDS011;3229;42.674;23.282;2022-12-18T11:04:18;12.47;;;9.67;;
6392;SDS011;3229;42.674;23.282;2022-12-18T11:06:59;12.23;;;9.10;;
6392;SDS011;3229;42.674;23.282;2022-12-18T11:09:29;13.63;;;9.53;;
6392;SDS011;3229;42.674;23.282;2022-12-18T11:11:58;13.00;;;9.90;;
6392;SDS011;3229;42.674;23.282;2022-12-18T11:14:27;17.03;;;10.53;;
6392;SDS011;3229;42.674;23.282;2022-12-18T11:16:55;12.50;;;9.40;;
6392;SDS011;3229;42.674;23.282;2022-12-18T11:19:27;12.13;;;9.50;;
6392;SDS011;3229;42.674;23.282;2022-12-18T11:21:58;13.53;;;9.77;;
6392;SDS011;3229;42.674;23.282;2022-12-18T11:24:27;12.90;;;10.00;;
6392;SDS011;3229;42.674;23.282;2022-12-18T11:26:58;15.53;;;9.90;;
6392;SDS011;3229;42.674;23.282;2022-12-18T11:29:30;12.13;;;9.40;;
6392;SDS011;3229;42.674;23.282;2022-12-18T11:32:13;12.23;;;9.30;;
6392;SDS011;3229;42.674;23.282;2022-12-18T11:34:51;13.07;;;9.50;;
6392;SDS011;3229;42.674;23.282;2022-12-18T11:37:24;12.20;;;9.03;;
6392;SDS011;3229;42.674;23.282;2022-12-18T11:39:54;12.63;;;9.03;;
6392;SDS011;3229;42.674;23.282;2022-12-18T11:42:27;12.03;;;8.90;;
6392;SDS011;3229;42.674;23.282;2022-12-18T11:45:02;14.77;;;9.60;;
6392;SDS011;3229;42.674;23.282;2022-12-18T11:47:44;12.00;;;8.93;;
6392;SDS011;3229;42.674;23.282;2022-12-18T11:50:17;12.13;;;9.30;;
6392;SDS011;3229;42.674;23.282;2022-12-18T11:52:47;11.33;;;8.83;;
6392;SDS011;3229;42.674;23.282;2022-12-18T11:55:16;11.10;;;8.40;;
6392;SDS011;3229;42.674;23.282;2022-12-18T11:57:55;12.10;;;8.47;;
6392;SDS011;3229;42.674;23.282;2022-12-18T12:00:28;12.33;;;8.90;;
6392;SDS011;3229;42.674;23.282;2022-12-18T12:03:06;11.20;;;8.80;;
6392;SDS011;3229;42.674;23.282;2022-12-18T12:05:51;12.77;;;8.97;;
6392;SDS011;3229;42.674;23.282;2022-12-18T12:08:33;13.73;;;8.40;;
6392;SDS011;3229;42.674;23.282;2022-12-18T12:11:13;12.27;;;9.33;;
6392;SDS011;3229;42.674;23.282;2022-12-18T12:13:49;11.33;;;9.17;;
6392;SDS011;3229;42.674;23.282;2022-12-18T12:16:22;11.77;;;8.77;;
6392;SDS011;3229;42.674;23.282;2022-12-18T12:18:58;12.40;;;8.27;;
6392;SDS011;3229;42.674;23.282;2022-12-18T12:21:34;12.93;;;9.10;;
6392;SDS011;3229;42.674;23.282;2022-12-18T12:24:10;10.33;;;8.63;;
6392;SDS011;3229;42.674;23.282;2022-12-18T12:26:50;12.37;;;9.47;;
6392;SDS011;3229;42.674;23.282;2022-12-18T12:29:31;12.57;;;9.13;;
6392;SDS011;3229;42.674;23.282;2022-12-18T12:32:13;12.50;;;9.27;;
6392;SDS011;3229;42.674;23.282;2022-12-18T12:34:53;10.50;;;8.63;;
6392;SDS011;3229;42.674;23.282;2022-12-18T12:37:30;11.80;;;9.27;;
6392;SDS011;3229;42.674;23.282;2022-12-18T12:40:04;13.27;;;9.37;;
6392;SDS011;3229;42.674;23.282;2022-12-18T12:42:35;15.13;;;9.70;;
6392;SDS011;3229;42.674;23.282;2022-12-18T12:45:26;11.50;;;9.10;;
6392;SDS011;3229;42.674;23.282;2022-12-18T12:48:00;10.90;;;8.27;;
6392;SDS011;3229;42.674;23.282;2022-12-18T12:50:28;11.90;;;8.83;;
6392;SDS011;3229;42.674;23.282;2022-12-18T12:53:00;13.33;;;9.60;;
6392;SDS011;3229;42.674;23.282;2022-12-18T12:55:32;11.87;;;9.27;;
6392;SDS011;3229;42.674;23.282;2022-12-18T12:58:02;12.30;;;9.27;;
6392;SDS011;3229;42.674;23.282;2022-12-18T13:00:36;11.90;;;9.00;;
6392;SDS011;3229;42.674;23.282;2022-12-18T13:03:12;12.93;;;9.07;;
6392;SDS011;3229;42.674;23.282;2022-12-18T13:05:45;12.03;;;9.20;;
6392;SDS011;3229;42.674;23.282;2022-12-18T13:08:22;11.60;;;9.07;;
6392;SDS011;3229;42.674;23.282;2022-12-18T13:10:51;10.67;;;9.10;;
6392;SDS011;3229;42.674;23.282;2022-12-18T13:13:49;14.17;;;9.20;;
6392;SDS011;3229;42.674;23.282;2022-12-18T13:16:17;11.87;;;8.83;;
6392;SDS011;3229;42.674;23.282;2022-12-18T13:18:49;11.63;;;9.20;;
6392;SDS011;3229;42.674;23.282;2022-12-18T13:21:20;12.37;;;9.13;;
6392;SDS011;3229;42.674;23.282;2022-12-18T13:23:50;12.60;;;9.73;;
6392;SDS011;3229;42.674;23.282;2022-12-18T13:26:30;10.23;;;8.90;;
6392;SDS011;3229;42.674;23.282;2022-12-18T13:29:00;12.40;;;9.67;;
6392;SDS011;3229;42.674;23.282;2022-12-18T13:34:35;12.80;;;9.27;;
6392;SDS011;3229;42.674;23.282;2022-12-18T13:43:22;12.97;;;9.10;;
6392;SDS011;3229;42.674;23.282;2022-12-18T13:46:02;13.90;;;9.27;;
6392;SDS011;3229;42.674;23.282;2022-12-18T13:48:50;13.43;;;9.97;;
6392;SDS011;3229;42.674;23.282;2022-12-18T13:51:21;15.70;;;9.67;;
6392;SDS011;3229;42.674;23.282;2022-12-18T13:53:50;13.13;;;9.20;;
6392;SDS011;3229;42.674;23.282;2022-12-18T13:56:21;12.73;;;9.37;;
6392;SDS011;3229;42.674;23.282;2022-12-18T13:59:03;12.83;;;10.00;;
6392;SDS011;3229;42.674;23.282;2022-12-18T14:01:34;14.47;;;9.60;;
6392;SDS011;3229;42.674;23.282;2022-12-18T14:04:10;14.87;;;10.07;;
6392;SDS011;3229;42.674;23.282;2022-12-18T14:06:38;13.90;;;9.33;;
6392;SDS011;3229;42.674;23.282;2022-12-18T14:09:10;12.27;;;9.47;;
6392;SDS011;3229;42.674;23.282;2022-12-18T14:11:40;13.27;;;10.13;;
6392;SDS011;3229;42.674;23.282;2022-12-18T14:14:13;12.80;;;9.27;;
6392;SDS011;3229;42.674;23.282;2022-12-18T14:16:42;10.17;;;8.13;;
6392;SDS011;3229;42.674;23.282;2022-12-18T14:19:10;13.70;;;9.63;;
6392;SDS011;3229;42.674;23.282;2022-12-18T14:21:40;10.90;;;8.77;;
6392;SDS011;3229;42.674;23.282;2022-12-18T14:24:13;12.07;;;9.03;;
6392;SDS011;3229;42.674;23.282;2022-12-18T14:26:42;10.73;;;8.47;;
6392;SDS011;3229;42.674;23.282;2022-12-18T14:29:19;10.33;;;8.57;;
6392;SDS011;3229;42.674;23.282;2022-12-18T14:32:06;12.10;;;9.30;;
6392;SDS011;3229;42.674;23.282;2022-12-18T14:34:35;11.90;;;9.13;;
6392;SDS011;3229;42.674;23.282;2022-12-18T14:37:02;12.10;;;8.50;;
6392;SDS011;3229;42.674;23.282;2022-12-18T14:39:29;13.50;;;9.30;;
6392;SDS011;3229;42.674;23.282;2022-12-18T14:41:56;14.13;;;9.37;;
6392;SDS011;3229;42.674;23.282;2022-12-18T14:44:23;12.23;;;9.10;;
6392;SDS011;3229;42.674;23.282;2022-12-18T14:46:50;12.40;;;9.20;;
6392;SDS011;3229;42.674;23.282;2022-12-18T14:49:21;10.73;;;8.60;;
6392;SDS011;3229;42.674;23.282;2022-12-18T14:51:51;13.27;;;10.00;;
6392;SDS011;3229;42.674;23.282;2022-12-18T14:54:20;13.47;;;9.60;;
6392;SDS011;3229;42.674;23.282;2022-12-18T14:56:48;10.63;;;8.73;;
6392;SDS011;3229;42.674;23.282;2022-12-18T14:59:18;15.27;;;9.60;;
6392;SDS011;3229;42.674;23.282;2022-12-18T15:01:48;11.00;;;8.90;;
6392;SDS011;3229;42.674;23.282;2022-12-18T15:04:27;15.30;;;10.03;;
6392;SDS011;3229;42.674;23.282;2022-12-18T15:07:02;11.73;;;8.70;;
6392;SDS011;3229;42.674;23.282;2022-12-18T15:09:32;11.17;;;9.07;;
6392;SDS011;3229;42.674;23.282;2022-12-18T15:11:59;11.43;;;8.53;;
6392;SDS011;3229;42.674;23.282;2022-12-18T15:14:33;11.93;;;9.10;;
6392;SDS011;3229;42.674;23.282;2022-12-18T15:17:05;13.20;;;8.80;;
6392;SDS011;3229;42.674;23.282;2022-12-18T15:19:42;10.60;;;8.53;;